Terminal Aerodrome Forecast
Issued by NWS

Home | Current Version | Previous Version | Graphics & Text | Print | Product List | Glossary On
Versions: 1 2 3 4 5 6 7 8 9 10 11 12 13 14 15
560
FTUS43 KMPX 172112 AAA
TAFAXN
TAF AMD
KAXN 172112Z 1721/1818 09010KT P6SM SCT100
     FM172300 09008KT P6SM BKN090
     FM180700 07007KT P6SM BKN030
     FM180900 04006KT P6SM BKN015
     FM181200 04006KT P6SM OVC015=

USA.gov is the U.S. government's official web portal to all federal, state and local government web resources and services.